createdAt,value
2018-05-06T00:01:09.490Z,94.90
2018-05-06T00:03:12.926Z,94.10
2018-05-06T00:05:15.584Z,94.10
2018-05-06T00:07:18.283Z,96.20
2018-05-06T00:09:20.971Z,96.50
2018-05-06T00:11:23.696Z,95.20
2018-05-06T00:13:27.141Z,97.80
2018-05-06T00:15:29.840Z,97.70
2018-05-06T00:17:32.550Z,98.30
2018-05-06T00:19:36.055Z,99.90
2018-05-06T00:21:38.722Z,99.90
2018-05-06T00:23:42.229Z,99.70
2018-05-06T00:25:44.928Z,99.70
2018-05-06T00:27:47.642Z,99.90
2018-05-06T00:29:50.522Z,99.90
2018-05-06T00:31:53.236Z,99.90
2018-05-06T00:33:55.923Z,99.90
2018-05-06T00:35:58.592Z,99.90
2018-05-06T00:38:01.301Z,99.90
2018-05-06T00:40:03.999Z,99.90
2018-05-06T00:42:06.681Z,99.90
2018-05-06T00:44:09.372Z,99.90
2018-05-06T00:46:12.823Z,99.90
2018-05-06T00:48:15.528Z,99.90
2018-05-06T00:50:18.428Z,99.90
2018-05-06T00:52:21.906Z,99.90
2018-05-06T00:54:36.594Z,99.90
2018-05-06T00:56:39.330Z,99.90
2018-05-06T00:58:42.032Z,99.90
2018-05-06T01:00:44.695Z,99.90
2018-05-06T01:02:47.370Z,99.90
2018-05-06T01:04:50.082Z,99.90
2018-05-06T01:06:52.770Z,99.90
2018-05-06T01:08:55.541Z,99.90
2018-05-06T01:10:58.226Z,99.90
2018-05-06T01:13:00.887Z,99.90
2018-05-06T01:15:04.424Z,99.90
2018-05-06T01:17:07.108Z,99.90
2018-05-06T01:19:09.816Z,99.90
2018-05-06T01:21:12.499Z,99.90
2018-05-06T01:23:15.964Z,99.90
2018-05-06T01:25:18.699Z,99.90
2018-05-06T01:27:21.397Z,99.90
2018-05-06T01:29:24.193Z,99.90
2018-05-06T01:31:26.906Z,99.90
2018-05-06T01:33:30.371Z,99.90
2018-05-06T01:35:33.079Z,99.90
2018-05-06T01:37:36.534Z,99.90
2018-05-06T01:39:39.238Z,99.90
2018-05-06T01:41:41.951Z,99.90
2018-05-06T01:43:44.693Z,99.90
2018-05-06T01:45:47.392Z,99.90
2018-05-06T01:47:50.085Z,99.90
2018-05-06T01:49:52.777Z,99.90
2018-05-06T01:51:55.490Z,99.90
2018-05-06T01:53:58.168Z,99.90
2018-05-06T01:56:00.901Z,99.90
2018-05-06T01:58:03.596Z,99.90
2018-05-06T02:00:06.298Z,99.90
2018-05-06T02:02:08.978Z,99.90
2018-05-06T02:04:11.642Z,99.90
2018-05-06T02:06:14.376Z,99.90
2018-05-06T02:08:17.216Z,99.90
2018-05-06T02:10:19.983Z,99.90
2018-05-06T02:12:22.719Z,99.90
2018-05-06T02:14:25.401Z,99.90
2018-05-06T02:16:28.121Z,99.90
2018-05-06T02:18:30.954Z,99.90
2018-05-06T02:20:33.610Z,99.90
2018-05-06T02:22:36.307Z,99.90
2018-05-06T02:24:39.009Z,99.90
2018-05-06T02:26:41.703Z,99.90
2018-05-06T02:28:44.439Z,99.90
2018-05-06T02:30:47.138Z,99.90
2018-05-06T02:32:49.826Z,99.90
2018-05-06T02:34:52.518Z,99.90
2018-05-06T02:36:55.208Z,99.90
2018-05-06T02:38:58.695Z,99.90
2018-05-06T02:41:02.145Z,99.90
2018-05-06T02:43:04.848Z,99.90
2018-05-06T02:45:07.545Z,99.90
2018-05-06T02:47:10.996Z,99.90
2018-05-06T02:49:13.718Z,99.90
2018-05-06T02:51:17.154Z,99.90
2018-05-06T02:53:19.878Z,99.90
2018-05-06T02:55:22.544Z,99.90
2018-05-06T02:57:25.249Z,99.90
2018-05-06T02:59:28.782Z,99.90
2018-05-06T03:01:31.447Z,99.90
2018-05-06T03:03:34.156Z,99.90
2018-05-06T03:05:36.870Z,99.90
2018-05-06T03:07:40.331Z,99.90
2018-05-06T03:09:43.046Z,99.90
2018-05-06T03:11:46.498Z,99.90
2018-05-06T03:13:49.458Z,99.90
2018-05-06T03:15:52.125Z,99.90
2018-05-06T03:17:54.808Z,99.90
2018-05-06T03:19:57.507Z,99.90
2018-05-06T03:22:00.216Z,99.90
2018-05-06T03:24:02.931Z,99.90
2018-05-06T03:26:05.612Z,99.90
2018-05-06T03:28:08.295Z,99.90
2018-05-06T03:30:11.060Z,99.90
2018-05-06T03:32:13.725Z,99.90
2018-05-06T03:34:17.153Z,99.90
2018-05-06T03:36:19.860Z,99.90
2018-05-06T03:38:22.549Z,99.90
2018-05-06T03:40:25.256Z,99.90
2018-05-06T03:42:27.936Z,99.90
2018-05-06T03:44:30.628Z,99.90
2018-05-06T03:46:33.375Z,99.90
2018-05-06T03:48:36.818Z,99.90
2018-05-06T03:50:39.526Z,99.90
2018-05-06T03:52:42.219Z,99.90
2018-05-06T03:54:45.676Z,99.90
2018-05-06T03:57:01.184Z,99.90
2018-05-06T03:59:16.553Z,99.90
2018-05-06T04:01:20.043Z,99.90
2018-05-06T04:03:22.720Z,99.90
2018-05-06T04:05:25.391Z,99.90
2018-05-06T04:07:28.093Z,99.90
2018-05-06T04:09:31.934Z,99.90
2018-05-06T04:11:34.702Z,99.90
2018-05-06T04:13:37.396Z,99.90
2018-05-06T04:15:40.868Z,99.90
2018-05-06T04:17:43.563Z,99.90
2018-05-06T04:19:46.268Z,99.90
2018-05-06T04:21:48.957Z,99.90
2018-05-06T04:23:51.746Z,99.90
2018-05-06T04:25:55.187Z,99.90
2018-05-06T04:27:57.988Z,99.90
2018-05-06T04:30:00.872Z,99.90
2018-05-06T04:32:03.545Z,99.90
2018-05-06T04:34:06.271Z,99.90
2018-05-06T04:36:08.962Z,99.90
2018-05-06T04:38:11.665Z,99.90
2018-05-06T04:40:14.344Z,99.90
2018-05-06T04:42:17.051Z,99.90
2018-05-06T04:44:19.727Z,99.90
2018-05-06T04:46:23.158Z,99.90
2018-05-06T04:48:25.853Z,99.90
2018-05-06T04:50:28.522Z,99.90
2018-05-06T04:52:31.222Z,99.90
2018-05-06T04:54:33.895Z,99.90
2018-05-06T04:56:36.713Z,99.90
2018-05-06T04:58:39.454Z,99.90
2018-05-06T05:00:42.149Z,99.90
2018-05-06T05:02:47.311Z,99.90
2018-05-06T05:04:50.088Z,99.90
2018-05-06T05:06:53.648Z,99.90
2018-05-06T05:08:56.402Z,99.90
2018-05-06T05:11:00.211Z,99.90
2018-05-06T05:13:02.912Z,99.90
2018-05-06T05:15:05.664Z,99.90
2018-05-06T05:17:08.354Z,99.90
2018-05-06T05:19:11.017Z,99.90
2018-05-06T05:21:13.737Z,99.90
2018-05-06T05:23:17.202Z,99.90
2018-05-06T05:25:19.899Z,99.90
2018-05-06T05:27:22.592Z,99.90
2018-05-06T05:29:26.160Z,99.90
2018-05-06T05:31:28.911Z,99.90
2018-05-06T05:33:31.739Z,99.90
2018-05-06T05:35:34.493Z,99.90
2018-05-06T05:37:37.190Z,99.90
2018-05-06T05:39:39.924Z,99.90
2018-05-06T05:41:42.659Z,99.90
2018-05-06T05:43:46.111Z,99.90
2018-05-06T05:45:49.938Z,99.90
2018-05-06T05:47:52.657Z,99.90
2018-05-06T05:49:55.360Z,99.90
2018-05-06T05:51:58.308Z,99.90
2018-05-06T05:54:00.982Z,99.90
2018-05-06T05:56:04.561Z,99.90
2018-05-06T05:58:08.027Z,99.90
2018-05-06T06:00:10.732Z,99.90
2018-05-06T06:02:14.343Z,99.90
2018-05-06T06:04:17.796Z,99.90
2018-05-06T06:06:20.704Z,99.90
2018-05-06T06:08:24.197Z,99.90
2018-05-06T06:10:27.661Z,99.90
2018-05-06T06:12:30.426Z,99.90
2018-05-06T06:14:33.146Z,99.90
2018-05-06T06:16:35.973Z,99.90
2018-05-06T06:18:38.695Z,99.90
2018-05-06T06:20:41.584Z,99.90
2018-05-06T06:22:44.294Z,99.90
2018-05-06T06:24:46.996Z,99.90
2018-05-06T06:26:49.699Z,99.90
2018-05-06T06:28:52.377Z,99.90
2018-05-06T06:30:55.079Z,99.90
2018-05-06T06:32:58.615Z,99.90
2018-05-06T06:35:01.347Z,99.90
2018-05-06T06:37:04.015Z,99.60
2018-05-06T06:39:06.736Z,99.60
2018-05-06T06:41:09.434Z,98.60
2018-05-06T06:43:12.098Z,96.50
2018-05-06T06:45:15.567Z,95.10
2018-05-06T06:47:18.790Z,94.40
2018-05-06T06:49:21.502Z,92.30
2018-05-06T06:51:24.221Z,93.20
2018-05-06T06:53:27.376Z,93.00
2018-05-06T06:55:30.107Z,91.30
2018-05-06T06:57:32.807Z,89.70
2018-05-06T06:59:35.536Z,88.70
2018-05-06T07:01:38.251Z,87.90
2018-05-06T07:03:40.958Z,86.90
2018-05-06T07:05:43.636Z,89.80
2018-05-06T07:07:46.345Z,86.00
2018-05-06T07:09:49.102Z,85.80
2018-05-06T07:11:52.570Z,80.70
2018-05-06T07:13:55.316Z,80.60
2018-05-06T07:15:58.034Z,82.10
2018-05-06T07:18:00.736Z,84.10
2018-05-06T07:20:04.174Z,78.00
2018-05-06T07:22:06.887Z,77.90
2018-05-06T07:24:13.933Z,78.50
2018-05-06T07:26:16.652Z,77.80
2018-05-06T07:28:20.187Z,77.50
2018-05-06T07:30:22.833Z,77.60
2018-05-06T07:32:25.557Z,77.90
2018-05-06T07:34:28.248Z,72.80
2018-05-06T07:36:30.972Z,71.70
2018-05-06T07:38:33.707Z,67.70
2018-05-06T07:40:36.374Z,71.90
2018-05-06T07:42:39.083Z,65.30
2018-05-06T07:44:42.571Z,69.60
2018-05-06T07:46:46.071Z,69.50
2018-05-06T07:48:48.765Z,69.50
2018-05-06T07:50:51.490Z,70.40
2018-05-06T07:52:54.178Z,70.60
2018-05-06T07:54:56.862Z,71.00
2018-05-06T07:56:59.584Z,73.20
2018-05-06T07:59:02.263Z,70.20
2018-05-06T08:01:04.916Z,67.70
2018-05-06T08:03:07.634Z,71.10
2018-05-06T08:05:11.156Z,68.80
2018-05-06T08:07:14.615Z,68.10
2018-05-06T08:09:17.344Z,68.10
2018-05-06T08:11:20.085Z,69.70
2018-05-06T08:13:22.792Z,65.20
2018-05-06T08:15:27.379Z,65.70
2018-05-06T08:17:30.096Z,65.50
2018-05-06T08:19:32.766Z,64.50
2018-05-06T08:21:35.574Z,64.30
2018-05-06T08:23:38.304Z,64.30
2018-05-06T08:25:41.071Z,63.40
2018-05-06T08:27:43.772Z,63.00
2018-05-06T08:29:47.272Z,58.90
2018-05-06T08:31:50.744Z,55.20
2018-05-06T08:33:53.454Z,55.20
2018-05-06T08:35:56.256Z,55.30
2018-05-06T08:37:58.948Z,53.60
2018-05-06T08:40:01.621Z,51.30
2018-05-06T08:42:04.375Z,51.20
2018-05-06T08:44:07.083Z,51.00
2018-05-06T08:46:09.846Z,51.00
2018-05-06T08:48:12.719Z,53.00
2018-05-06T08:50:15.487Z,44.90
2018-05-06T08:52:18.212Z,48.00
2018-05-06T08:54:20.928Z,44.90
2018-05-06T08:56:23.638Z,45.40
2018-05-06T08:58:26.388Z,44.20
2018-05-06T09:00:29.093Z,42.90
2018-05-06T09:02:31.805Z,43.70
2018-05-06T09:04:35.279Z,41.50
2018-05-06T09:06:37.953Z,41.50
2018-05-06T09:08:40.666Z,41.50
2018-05-06T09:10:43.379Z,44.70
2018-05-06T09:12:46.060Z,40.40
2018-05-06T09:14:49.544Z,38.50
2018-05-06T09:16:52.232Z,38.50
2018-05-06T09:18:54.931Z,39.80
2018-05-06T09:20:57.639Z,41.50
2018-05-06T09:23:00.328Z,40.70
2018-05-06T09:25:03.056Z,38.10
2018-05-06T09:27:05.725Z,39.50
2018-05-06T09:29:08.442Z,39.90
2018-05-06T09:31:11.969Z,40.70
2018-05-06T09:33:14.656Z,40.40
2018-05-06T09:35:17.369Z,39.50
2018-05-06T09:37:20.049Z,38.40
2018-05-06T09:39:22.749Z,38.80
2018-05-06T09:41:26.192Z,39.20
2018-05-06T09:43:28.919Z,39.20
2018-05-06T09:45:32.408Z,37.90
2018-05-06T09:47:35.960Z,37.50
2018-05-06T09:49:39.388Z,36.40
2018-05-06T09:51:42.897Z,36.70
2018-05-06T09:53:46.414Z,35.40
2018-05-06T09:55:49.144Z,35.40
2018-05-06T09:57:51.851Z,37.60
2018-05-06T09:59:55.325Z,40.60
2018-05-06T10:01:58.079Z,40.60
2018-05-06T10:04:00.786Z,41.70
2018-05-06T10:06:04.252Z,46.00
2018-05-06T10:08:06.972Z,45.70
2018-05-06T10:10:10.440Z,46.00
2018-05-06T10:12:13.145Z,45.80
2018-05-06T10:14:16.641Z,46.50
2018-05-06T10:16:21.469Z,45.70
2018-05-06T10:21:02.138Z,45.50
2018-05-06T10:23:04.849Z,45.30
2018-05-06T10:25:07.555Z,45.50
2018-05-06T10:27:10.291Z,43.60
2018-05-06T10:29:12.957Z,44.30
2018-05-06T10:31:15.663Z,43.50
2018-05-06T10:33:19.154Z,41.40
2018-05-06T10:35:22.602Z,42.40
2018-05-06T10:37:26.072Z,44.00
2018-05-06T10:39:28.777Z,43.80
2018-05-06T10:41:31.470Z,43.90
2018-05-06T10:43:34.214Z,45.30
2018-05-06T10:45:36.944Z,49.30
2018-05-06T10:47:39.722Z,50.30
2018-05-06T10:49:42.459Z,48.90
2018-05-06T10:51:45.929Z,50.60
2018-05-06T10:53:48.606Z,50.50
2018-05-06T10:55:51.274Z,51.00
2018-05-06T10:57:54.048Z,52.40
2018-05-06T10:59:56.926Z,51.80
2018-05-06T11:01:59.613Z,53.20
2018-05-06T11:04:02.358Z,51.70
2018-05-06T11:06:05.802Z,53.90
2018-05-06T11:08:08.493Z,54.10
2018-05-06T11:10:12.017Z,51.90
2018-05-06T11:12:14.708Z,51.90
2018-05-06T11:14:17.422Z,51.20
2018-05-06T11:16:20.115Z,50.80
2018-05-06T11:18:22.824Z,53.40
2018-05-06T11:20:25.519Z,50.90
2018-05-06T11:22:28.224Z,52.70
2018-05-06T11:24:30.912Z,52.50
2018-05-06T11:26:33.639Z,52.60
2018-05-06T11:28:36.339Z,52.40
2018-05-06T11:30:39.162Z,52.20
2018-05-06T11:32:42.612Z,52.30
2018-05-06T11:34:45.292Z,52.30
2018-05-06T11:36:48.008Z,54.50
2018-05-06T11:38:51.465Z,52.00
2018-05-06T11:40:55.007Z,51.60
2018-05-06T11:42:57.659Z,51.60
2018-05-06T11:45:00.355Z,51.70
2018-05-06T11:47:03.853Z,49.90
2018-05-06T11:49:07.316Z,49.90
2018-05-06T11:51:10.042Z,49.80
2018-05-06T11:53:12.724Z,51.00
2018-05-06T11:55:15.476Z,52.50
2018-05-06T11:57:18.937Z,52.40
2018-05-06T11:59:21.635Z,52.20
2018-05-06T12:01:24.355Z,51.20
2018-05-06T12:03:27.055Z,48.80
2018-05-06T12:05:29.758Z,49.10
2018-05-06T12:07:32.442Z,51.20
2018-05-06T12:09:35.129Z,47.70
2018-05-06T12:11:38.576Z,48.00
2018-05-06T12:13:41.344Z,48.00
2018-05-06T12:15:44.052Z,48.70
2018-05-06T12:17:46.729Z,46.50
2018-05-06T12:19:49.463Z,47.80
2018-05-06T12:21:52.222Z,46.80
2018-05-06T12:23:54.951Z,47.40
2018-05-06T12:25:57.704Z,47.50
2018-05-06T12:28:00.485Z,50.00
2018-05-06T12:30:03.216Z,46.80
2018-05-06T12:32:06.690Z,48.20
2018-05-06T12:34:09.371Z,47.60
2018-05-06T12:36:12.050Z,47.50
2018-05-06T12:38:14.722Z,46.80
2018-05-06T12:40:17.411Z,47.00
2018-05-06T12:42:22.129Z,47.30
2018-05-06T12:44:24.848Z,46.70
2018-05-06T12:46:27.516Z,46.50
2018-05-06T12:48:30.965Z,45.70
2018-05-06T12:50:33.659Z,45.70
2018-05-06T12:52:36.344Z,46.60
2018-05-06T12:54:39.051Z,47.10
2018-05-06T12:56:41.758Z,47.10
2018-05-06T12:58:44.488Z,47.40
2018-05-06T13:00:47.944Z,48.50
2018-05-06T13:02:50.696Z,48.60
2018-05-06T13:04:53.470Z,45.90
2018-05-06T13:06:56.878Z,48.70
2018-05-06T13:08:59.683Z,48.60
2018-05-06T13:11:02.354Z,48.40
2018-05-06T13:13:05.076Z,47.50
2018-05-06T13:15:07.758Z,48.10
2018-05-06T13:17:10.466Z,48.00
2018-05-06T13:19:13.158Z,48.10
2018-05-06T13:21:17.011Z,47.80
2018-05-06T13:23:21.459Z,47.50
2018-05-06T13:25:25.274Z,46.50
2018-05-06T13:27:36.201Z,47.00
2018-05-06T13:29:42.002Z,45.90
2018-05-06T13:31:45.208Z,48.50
2018-05-06T13:33:49.338Z,46.00
2018-05-06T13:35:52.051Z,46.20
2018-05-06T13:37:56.003Z,46.90
2018-05-06T13:40:14.496Z,45.90
2018-05-06T13:42:17.224Z,47.30
2018-05-06T13:44:19.944Z,47.10
2018-05-06T13:46:22.636Z,45.80
2018-05-06T13:48:25.349Z,48.70
2018-05-06T13:50:28.784Z,46.10
2018-05-06T13:52:31.500Z,46.30
2018-05-06T13:54:34.228Z,46.60
2018-05-06T13:56:36.934Z,46.10
2018-05-06T13:58:40.693Z,45.90
2018-05-06T14:00:43.440Z,46.20
2018-05-06T14:02:46.130Z,47.20
2018-05-06T14:04:49.610Z,46.20
2018-05-06T14:06:52.547Z,46.10
2018-05-06T14:08:55.249Z,46.30
2018-05-06T14:10:57.942Z,47.60
2018-05-06T14:13:00.728Z,45.90
2018-05-06T14:15:04.195Z,45.90
2018-05-06T14:17:07.012Z,45.90
2018-05-06T14:19:10.123Z,46.00
2018-05-06T14:21:13.300Z,45.50
2018-05-06T14:23:16.451Z,46.10
2018-05-06T14:25:19.580Z,47.20
2018-05-06T14:27:22.389Z,45.50
2018-05-06T14:29:25.079Z,44.70
2018-05-06T14:31:27.804Z,45.50
2018-05-06T14:33:30.501Z,44.60
2018-05-06T14:35:33.207Z,43.40
2018-05-06T14:37:37.557Z,44.00
2018-05-06T14:39:41.310Z,44.10
2018-05-06T14:41:44.047Z,44.10
2018-05-06T14:43:46.909Z,43.70
2018-05-06T14:45:49.671Z,44.70
2018-05-06T14:48:04.464Z,43.10
2018-05-06T14:50:08.090Z,43.50
2018-05-06T14:52:10.863Z,43.60
2018-05-06T14:54:13.765Z,44.50
2018-05-06T14:56:16.479Z,44.20
2018-05-06T14:58:19.188Z,43.90
2018-05-06T15:00:21.917Z,43.40
2018-05-06T15:02:24.620Z,43.90
2018-05-06T15:04:28.114Z,44.30
2018-05-06T15:06:31.584Z,43.80
2018-05-06T15:08:34.275Z,43.80
2018-05-06T15:10:37.094Z,45.10
2018-05-06T15:12:40.592Z,45.00
2018-05-06T15:14:43.412Z,44.90
2018-05-06T15:16:46.103Z,45.60
2018-05-06T15:18:48.792Z,45.00
2018-05-06T15:20:52.383Z,46.30
2018-05-06T15:22:55.082Z,46.10
2018-05-06T15:24:57.786Z,46.80
2018-05-06T15:27:00.551Z,45.50
2018-05-06T15:29:03.281Z,45.80
2018-05-06T15:31:05.959Z,46.90
2018-05-06T15:33:08.669Z,46.90
2018-05-06T15:35:11.387Z,45.30
2018-05-06T15:37:14.099Z,45.50
2018-05-06T15:39:16.810Z,45.70
2018-05-06T15:41:19.554Z,46.70
2018-05-06T15:43:22.233Z,45.80
2018-05-06T15:45:24.976Z,45.60
2018-05-06T15:47:27.657Z,45.80
2018-05-06T15:49:30.387Z,46.20
2018-05-06T15:51:33.435Z,46.20
2018-05-06T15:53:36.184Z,46.70
2018-05-06T15:55:38.885Z,45.70
2018-05-06T15:57:41.629Z,46.40
2018-05-06T15:59:44.313Z,45.80
2018-05-06T16:01:58.920Z,47.30
2018-05-06T16:04:13.732Z,46.30
2018-05-06T16:06:16.429Z,46.30
2018-05-06T16:08:19.156Z,46.50
2018-05-06T16:10:21.868Z,45.20
2018-05-06T16:12:24.714Z,45.40
2018-05-06T16:14:27.509Z,45.70
2018-05-06T16:16:30.333Z,45.90
2018-05-06T16:18:33.055Z,46.10
2018-05-06T16:20:35.940Z,46.20
2018-05-06T16:22:38.731Z,46.30
2018-05-06T16:24:41.456Z,46.00
2018-05-06T16:26:44.243Z,46.30
2018-05-06T16:28:46.979Z,47.20
2018-05-06T16:30:50.508Z,47.00
2018-05-06T16:32:53.212Z,47.20
2018-05-06T16:34:56.871Z,46.30
2018-05-06T16:36:59.666Z,46.80
2018-05-06T16:39:02.382Z,46.60
2018-05-06T16:41:05.123Z,46.50
2018-05-06T16:43:07.851Z,47.10
2018-05-06T16:45:10.595Z,47.10
2018-05-06T16:47:13.485Z,47.50
2018-05-06T16:49:16.296Z,46.60
2018-05-06T16:51:19.130Z,47.10
2018-05-06T16:53:21.832Z,47.00
2018-05-06T16:55:24.566Z,46.50
2018-05-06T16:57:27.433Z,46.90
2018-05-06T16:59:30.442Z,47.40
2018-05-06T17:01:33.598Z,47.80
2018-05-06T17:03:39.206Z,48.60
2018-05-06T17:05:41.950Z,48.60
2018-05-06T17:07:44.743Z,48.50
2018-05-06T17:09:47.481Z,49.00
2018-05-06T17:11:51.196Z,48.60
2018-05-06T17:13:53.920Z,48.60
2018-05-06T17:15:56.972Z,48.70
2018-05-06T17:17:59.736Z,49.20
2018-05-06T17:20:12.871Z,48.60
2018-05-06T17:22:15.609Z,48.50
2018-05-06T17:24:19.063Z,50.20
2018-05-06T17:26:21.776Z,50.00
2018-05-06T17:28:25.312Z,49.70
2018-05-06T17:30:28.169Z,49.60
2018-05-06T17:32:32.313Z,50.20
2018-05-06T17:34:35.063Z,50.20
2018-05-06T17:36:37.742Z,51.00
2018-05-06T17:38:40.577Z,51.40
2018-05-06T17:40:44.264Z,51.60
2018-05-06T17:42:47.162Z,51.60
2018-05-06T17:44:50.827Z,50.90
2018-05-06T17:46:53.576Z,51.30
2018-05-06T17:48:56.313Z,51.30
2018-05-06T17:50:59.292Z,51.40
2018-05-06T17:53:03.057Z,51.50
2018-05-06T17:55:05.779Z,52.00
2018-05-06T17:57:08.606Z,52.10
2018-05-06T17:59:11.405Z,52.10
2018-05-06T18:01:14.221Z,52.60
2018-05-06T18:03:17.028Z,52.40
2018-05-06T18:05:20.527Z,53.30
2018-05-06T18:07:23.240Z,53.20
2018-05-06T18:09:26.089Z,53.00
2018-05-06T18:11:29.631Z,53.20
2018-05-06T18:13:33.331Z,53.10
2018-05-06T18:15:36.314Z,53.80
2018-05-06T18:17:39.046Z,54.00
2018-05-06T18:19:41.773Z,54.00
2018-05-06T18:21:45.050Z,53.90
2018-05-06T18:23:47.746Z,53.60
2018-05-06T18:25:51.705Z,53.90
2018-05-06T18:27:54.402Z,53.90
2018-05-06T18:29:57.152Z,54.10
2018-05-06T18:32:00.033Z,54.20
2018-05-06T18:34:02.799Z,54.70
2018-05-06T18:36:06.305Z,54.70
2018-05-06T18:38:09.015Z,54.60
2018-05-06T18:40:11.946Z,55.10
2018-05-06T18:42:15.488Z,56.30
2018-05-06T18:44:18.317Z,55.80
2018-05-06T18:46:21.108Z,55.70
2018-05-06T18:48:24.590Z,55.80
2018-05-06T18:50:27.342Z,55.80
2018-05-06T18:52:30.107Z,55.30
2018-05-06T18:54:35.279Z,56.40
2018-05-06T18:56:38.396Z,56.40
2018-05-06T18:58:41.262Z,56.60
2018-05-06T19:00:45.927Z,57.00
2018-05-06T19:02:48.825Z,56.90
2018-05-06T19:04:52.402Z,57.40
2018-05-06T19:06:56.173Z,57.30
2018-05-06T19:08:59.654Z,57.50
2018-05-06T19:11:02.356Z,57.50
2018-05-06T19:13:05.105Z,57.90
2018-05-06T19:15:07.828Z,57.70
2018-05-06T19:17:10.918Z,58.00
2018-05-06T19:19:13.640Z,58.00
2018-05-06T19:21:16.431Z,58.50
2018-05-06T19:23:19.903Z,59.00
2018-05-06T19:25:22.658Z,58.90
2018-05-06T19:27:25.344Z,59.20
2018-05-06T19:29:28.244Z,59.30
2018-05-06T19:31:31.010Z,59.60
2018-05-06T19:33:33.720Z,59.80
2018-05-06T19:35:37.228Z,59.90
2018-05-06T19:37:39.937Z,59.60
2018-05-06T19:39:43.140Z,59.50
2018-05-06T19:41:46.563Z,60.20
2018-05-06T19:43:49.282Z,60.20
2018-05-06T19:45:52.000Z,60.30
2018-05-06T19:47:54.691Z,60.80
2018-05-06T19:49:57.390Z,60.50
2018-05-06T19:52:00.881Z,60.80
2018-05-06T19:54:04.336Z,61.10
2018-05-06T19:56:07.059Z,61.10
2018-05-06T19:58:10.501Z,61.40
2018-05-06T20:00:13.206Z,61.30
2018-05-06T20:02:16.698Z,61.30
2018-05-06T20:04:21.616Z,61.30
2018-05-06T20:06:26.440Z,61.00
2018-05-06T20:08:29.131Z,60.80
2018-05-06T20:10:31.834Z,61.60
2018-05-06T20:12:35.282Z,60.90
2018-05-06T20:14:38.273Z,60.90
2018-05-06T20:16:41.067Z,60.70
2018-05-06T20:18:43.843Z,61.00
2018-05-06T20:20:47.342Z,60.80
2018-05-06T20:22:50.045Z,60.80
2018-05-06T20:24:53.684Z,60.80
2018-05-06T20:26:56.403Z,60.80
2018-05-06T20:28:59.842Z,61.60
2018-05-06T20:31:02.538Z,61.40
2018-05-06T20:33:05.262Z,61.10
2018-05-06T20:35:08.709Z,61.40
2018-05-06T20:37:12.501Z,61.20
2018-05-06T20:39:15.230Z,62.00
2018-05-06T20:41:18.688Z,61.50
2018-05-06T20:43:21.422Z,61.50
2018-05-06T20:45:24.175Z,61.80
2018-05-06T20:47:27.674Z,62.80
2018-05-06T20:49:31.124Z,62.70
2018-05-06T20:51:33.894Z,62.70
2018-05-06T20:53:36.625Z,62.90
2018-05-06T20:55:40.100Z,62.40
2018-05-06T20:57:44.250Z,62.40
2018-05-06T20:59:47.877Z,63.10
2018-05-06T21:01:50.776Z,63.10
2018-05-06T21:03:53.512Z,63.00
2018-05-06T21:05:56.190Z,63.30
2018-05-06T21:07:58.895Z,63.20
2018-05-06T21:10:01.607Z,63.70
2018-05-06T21:12:04.331Z,63.20
2018-05-06T21:14:07.047Z,63.50
2018-05-06T21:16:09.810Z,63.50
2018-05-06T21:18:12.447Z,63.40
2018-05-06T21:20:15.259Z,63.90
2018-05-06T21:22:17.934Z,64.30
2018-05-06T21:24:20.761Z,65.40
2018-05-06T21:26:23.449Z,64.90
2018-05-06T21:28:26.187Z,66.10
2018-05-06T21:30:28.915Z,68.70
2018-05-06T21:32:31.585Z,66.70
2018-05-06T21:34:34.272Z,68.50
2018-05-06T21:36:36.951Z,72.50
2018-05-06T21:38:39.615Z,73.10
2018-05-06T21:40:42.308Z,74.70
2018-05-06T21:42:44.984Z,76.70
2018-05-06T21:44:47.778Z,75.50
2018-05-06T21:46:50.419Z,76.60
2018-05-06T21:48:53.088Z,73.80
2018-05-06T21:50:55.790Z,77.00
2018-05-06T21:52:58.512Z,74.60
2018-05-06T21:55:01.249Z,78.70
2018-05-06T21:57:04.718Z,84.40
2018-05-06T21:59:07.419Z,83.70
2018-05-06T22:01:16.982Z,87.60
2018-05-06T22:03:19.634Z,90.30
2018-05-06T22:05:23.103Z,93.50
2018-05-06T22:07:25.818Z,93.20
2018-05-06T22:09:29.271Z,92.80
2018-05-06T22:11:31.976Z,92.80
2018-05-06T22:13:35.497Z,94.00
2018-05-06T22:15:38.525Z,94.00
2018-05-06T22:17:41.241Z,95.90
2018-05-06T22:19:43.911Z,98.30
2018-05-06T22:21:47.360Z,99.90
2018-05-06T22:23:50.049Z,99.90
2018-05-06T22:25:52.749Z,99.90
2018-05-06T22:27:56.180Z,99.90
2018-05-06T22:29:59.627Z,99.90
2018-05-06T22:32:02.404Z,99.90
2018-05-06T22:34:05.068Z,99.90
2018-05-06T22:36:08.884Z,99.90
2018-05-06T22:38:12.344Z,99.90
2018-05-06T22:40:15.013Z,99.90
2018-05-06T22:42:17.943Z,99.90
2018-05-06T22:44:21.438Z,99.90
2018-05-06T22:46:24.078Z,99.90
2018-05-06T22:48:26.783Z,99.90
2018-05-06T22:50:30.225Z,99.90
2018-05-06T22:52:32.928Z,99.90
2018-05-06T22:54:50.789Z,99.90
2018-05-06T22:56:54.240Z,99.90
2018-05-06T22:58:56.938Z,99.90
2018-05-06T23:00:59.643Z,99.90
2018-05-06T23:03:02.355Z,99.90
2018-05-06T23:05:05.059Z,99.90
2018-05-06T23:07:07.757Z,99.90
2018-05-06T23:09:11.205Z,99.90
2018-05-06T23:11:13.918Z,99.90
2018-05-06T23:13:16.607Z,99.90
2018-05-06T23:15:20.027Z,99.90
2018-05-06T23:17:22.718Z,99.90
2018-05-06T23:19:25.412Z,99.90
2018-05-06T23:21:28.077Z,99.90
2018-05-06T23:23:30.766Z,99.90
2018-05-06T23:25:33.488Z,99.90
2018-05-06T23:27:36.134Z,99.90
2018-05-06T23:29:38.836Z,99.90
2018-05-06T23:31:41.500Z,99.90
2018-05-06T23:33:44.955Z,99.90
2018-05-06T23:35:47.611Z,99.90
2018-05-06T23:37:50.284Z,99.90
2018-05-06T23:39:52.996Z,99.90
2018-05-06T23:41:55.647Z,99.90
2018-05-06T23:43:58.394Z,99.90
2018-05-06T23:46:01.086Z,99.90
2018-05-06T23:48:03.756Z,99.90
2018-05-06T23:50:06.452Z,99.90
2018-05-06T23:52:09.124Z,99.90
2018-05-06T23:54:11.869Z,99.90
2018-05-06T23:56:14.566Z,99.90
2018-05-06T23:58:17.373Z,99.90
